Time;durP1;ratioP1;P1;durP2;ratioP2;P2;SDS_P1;SDS_P2;PMS_P1;PMS_P2;Temp;Humidity;BMP_temperature;BMP_pressure;BME280_temperature;BME280_humidity;BME280_pressure;Samples;Min_cycle;Max_cycle;Signal;HPM_P1;HPM_P2
2023/07/29 00:02:07;;;;;;;12.82;9.48;;;17.10;99.90;;;;;;5046955;28;20441;-72
2023/07/29 00:04:33;;;;;;;11.13;8.15;;;17.10;99.90;;;;;;5046555;28;20056;-72
2023/07/29 00:06:58;;;;;;;10.55;6.85;;;17.10;99.90;;;;;;5048768;28;20025;-72
2023/07/29 00:09:24;;;;;;;13.85;6.88;;;17.10;99.90;;;;;;5051458;28;20402;-72
2023/07/29 00:11:49;;;;;;;9.73;6.00;;;17.10;99.90;;;;;;5044617;28;20067;-72
2023/07/29 00:14:15;;;;;;;6.55;4.97;;;17.10;99.90;;;;;;5047181;28;20037;-72
2023/07/29 00:16:42;;;;;;;12.93;8.82;;;17.10;99.90;;;;;;5036366;28;20532;-73
2023/07/29 00:19:07;;;;;;;16.60;11.07;;;17.10;99.90;;;;;;5048037;28;20079;-72
2023/07/29 00:21:33;;;;;;;12.88;9.05;;;17.10;99.90;;;;;;5052277;28;20021;-72
2023/07/29 00:23:58;;;;;;;14.60;9.00;;;17.10;99.90;;;;;;5051391;28;20033;-72
2023/07/29 00:26:25;;;;;;;11.35;9.45;;;17.00;99.90;;;;;;5050381;28;20035;-72
2023/07/29 00:28:51;;;;;;;14.23;8.85;;;17.00;99.90;;;;;;5048692;28;20112;-73
2023/07/29 00:31:18;;;;;;;13.38;8.02;;;16.90;99.90;;;;;;5051603;28;20051;-72
2023/07/29 00:33:43;;;;;;;11.45;7.45;;;16.90;99.90;;;;;;5051881;28;20096;-73
2023/07/29 00:36:09;;;;;;;8.15;6.13;;;16.90;99.90;;;;;;5051874;28;20055;-72
2023/07/29 00:38:34;;;;;;;10.70;6.00;;;16.80;99.90;;;;;;5049571;28;20548;-73
2023/07/29 00:41:02;;;;;;;5.75;4.55;;;16.80;99.90;;;;;;5049613;28;20473;-72
2023/07/29 00:43:27;;;;;;;9.10;6.82;;;16.70;99.90;;;;;;5050093;28;20040;-72
2023/07/29 00:45:53;;;;;;;9.23;7.10;;;16.70;99.90;;;;;;5051589;28;20029;-72
2023/07/29 00:48:18;;;;;;;13.07;7.22;;;16.60;99.90;;;;;;5051304;28;20428;-73
2023/07/29 00:50:44;;;;;;;8.02;5.65;;;16.60;99.90;;;;;;5051055;28;20017;-73
2023/07/29 00:53:10;;;;;;;9.77;7.05;;;16.60;99.90;;;;;;5051123;28;20040;-72
2023/07/29 00:55:36;;;;;;;17.27;11.82;;;16.60;99.90;;;;;;5050400;28;20021;-72
2023/07/29 00:58:02;;;;;;;20.75;15.15;;;16.60;99.90;;;;;;5048348;28;20033;-72
2023/07/29 01:00:28;;;;;;;26.50;16.92;;;16.80;99.90;;;;;;5049971;28;20072;-72
2023/07/29 01:02:54;;;;;;;26.20;18.52;;;16.80;99.90;;;;;;5050477;28;20075;-72
2023/07/29 01:05:20;;;;;;;32.60;17.83;;;17.00;99.90;;;;;;5049248;28;20033;-72
2023/07/29 01:07:52;;;;;;;23.70;16.35;;;17.00;99.90;;;;;;5050325;28;20389;-72
2023/07/29 01:10:46;;;;;;;26.17;15.55;;;17.10;99.90;;;;;;5051438;28;20036;-73
2023/07/29 01:13:25;;;;;;;19.08;13.65;;;17.20;99.90;;;;;;5047193;28;20044;-72
2023/07/29 01:16:17;;;;;;;18.80;12.82;;;17.20;99.90;;;;;;5050382;28;20069;-71
2023/07/29 01:18:46;;;;;;;22.60;14.83;;;17.20;99.90;;;;;;5048235;28;20040;-72
2023/07/29 01:21:13;;;;;;;24.48;15.82;;;17.10;99.90;;;;;;5049499;28;20036;-71
2023/07/29 01:23:39;;;;;;;23.80;17.38;;;17.20;99.90;;;;;;5049585;28;20025;-71
2023/07/29 01:26:04;;;;;;;27.98;18.00;;;17.20;99.90;;;;;;5049815;28;20046;-71
2023/07/29 01:28:31;;;;;;;22.33;15.65;;;17.20;99.90;;;;;;5050347;28;20021;-72
2023/07/29 01:31:23;;;;;;;24.17;17.50;;;17.30;99.90;;;;;;5050806;28;20105;-72
2023/07/29 01:34:10;;;;;;;24.23;17.33;;;17.30;99.90;;;;;;5046963;28;20023;-72
2023/07/29 01:36:40;;;;;;;23.90;16.90;;;17.30;99.90;;;;;;5049325;28;20036;-72
2023/07/29 01:39:06;;;;;;;26.02;16.88;;;17.30;99.90;;;;;;5048307;28;20033;-72
2023/07/29 01:41:33;;;;;;;24.02;16.50;;;17.30;99.90;;;;;;5046959;28;20326;-72
2023/07/29 01:43:59;;;;;;;23.65;17.50;;;17.30;99.90;;;;;;5049475;28;20028;-72
2023/07/29 01:46:25;;;;;;;25.20;16.90;;;17.40;99.90;;;;;;5051547;28;20025;-72
2023/07/29 01:48:51;;;;;;;27.58;17.67;;;17.40;99.90;;;;;;5049285;28;20028;-72
2023/07/29 01:51:16;;;;;;;24.13;17.27;;;17.40;99.90;;;;;;5050679;28;20033;-72
2023/07/29 01:53:42;;;;;;;24.67;17.08;;;17.40;99.90;;;;;;5048233;28;20036;-72
2023/07/29 01:56:07;;;;;;;24.05;16.42;;;17.40;99.90;;;;;;5047915;28;20029;-72
2023/07/29 01:58:33;;;;;;;26.02;16.55;;;17.50;99.90;;;;;;5050092;28;20033;-72
2023/07/29 02:00:59;;;;;;;25.20;17.50;;;17.50;99.90;;;;;;5050777;28;20135;-72
2023/07/29 02:03:24;;;;;;;27.75;18.38;;;17.50;99.90;;;;;;5049410;28;20029;-73
2023/07/29 02:05:50;;;;;;;26.25;17.85;;;17.50;99.90;;;;;;5049258;28;20144;-72
2023/07/29 02:08:15;;;;;;;25.70;17.27;;;17.50;99.90;;;;;;5050433;28;20560;-73
2023/07/29 02:10:42;;;;;;;22.48;15.60;;;17.60;99.90;;;;;;5050528;28;20084;-72
2023/07/29 02:13:08;;;;;;;23.92;15.15;;;17.60;99.90;;;;;;5049055;28;20053;-73
2023/07/29 02:15:33;;;;;;;20.42;13.82;;;17.60;99.90;;;;;;5049497;28;20088;-72
2023/07/29 02:17:59;;;;;;;18.75;12.93;;;17.60;99.90;;;;;;5049856;28;20106;-73
2023/07/29 02:20:24;;;;;;;19.38;11.95;;;17.60;99.90;;;;;;5050973;28;20025;-72
2023/07/29 02:22:50;;;;;;;15.75;10.57;;;17.70;99.90;;;;;;5049103;28;20481;-72
2023/07/29 02:25:15;;;;;;;15.68;8.70;;;17.70;99.90;;;;;;5050080;28;20380;-72
2023/07/29 02:27:41;;;;;;;13.52;7.82;;;17.70;99.90;;;;;;5044894;28;20044;-73
2023/07/29 02:30:09;;;;;;;10.43;6.38;;;17.70;99.90;;;;;;5049060;28;20025;-72
2023/07/29 02:32:35;;;;;;;10.20;5.53;;;17.70;99.90;;;;;;5048047;28;20044;-72
2023/07/29 02:35:00;;;;;;;7.93;5.10;;;17.80;99.90;;;;;;5046970;28;20067;-72
2023/07/29 02:37:26;;;;;;;7.82;4.97;;;17.80;99.90;;;;;;5048278;28;20036;-72
2023/07/29 02:39:54;;;;;;;10.45;5.43;;;17.80;99.90;;;;;;5049003;28;20051;-72
2023/07/29 02:42:20;;;;;;;7.50;5.07;;;17.80;99.90;;;;;;5044863;28;20059;-73
2023/07/29 02:44:45;;;;;;;7.25;4.50;;;17.80;99.90;;;;;;5047722;28;20025;-73
2023/07/29 02:47:11;;;;;;;11.40;4.22;;;17.80;99.90;;;;;;5048691;28;20036;-72
2023/07/29 02:49:36;;;;;;;9.38;3.75;;;17.70;99.90;;;;;;5048186;28;20025;-72
2023/07/29 02:52:02;;;;;;;7.95;5.05;;;17.70;99.90;;;;;;5049403;28;20055;-72
2023/07/29 02:54:27;;;;;;;7.10;4.13;;;17.70;99.90;;;;;;5047234;28;20025;-73
2023/07/29 02:56:53;;;;;;;6.10;4.32;;;17.70;99.90;;;;;;5049183;28;20155;-72
2023/07/29 02:59:19;;;;;;;8.52;4.20;;;17.60;99.90;;;;;;5048575;28;20512;-73
2023/07/29 03:01:45;;;;;;;5.25;3.17;;;17.60;99.90;;;;;;5047448;28;20376;-72
2023/07/29 03:04:12;;;;;;;6.13;4.07;;;17.60;99.90;;;;;;5049666;28;20037;-72
2023/07/29 03:06:38;;;;;;;5.22;2.90;;;17.70;99.90;;;;;;5044818;28;20358;-74
2023/07/29 03:09:04;;;;;;;7.43;3.03;;;17.70;99.90;;;;;;5042392;28;20037;-72
2023/07/29 03:11:30;;;;;;;6.95;3.00;;;17.60;99.90;;;;;;5049542;28;20017;-72
2023/07/29 03:13:56;;;;;;;6.38;2.90;;;17.60;99.90;;;;;;5045279;28;20175;-73
2023/07/29 03:16:22;;;;;;;4.40;2.75;;;17.60;99.90;;;;;;5048472;28;20108;-72
2023/07/29 03:18:49;;;;;;;7.93;2.92;;;17.60;99.90;;;;;;5048611;28;20036;-73
2023/07/29 03:21:14;;;;;;;7.13;2.60;;;17.60;99.90;;;;;;5048276;28;20116;-72
2023/07/29 03:23:40;;;;;;;4.78;2.15;;;17.50;99.90;;;;;;5047363;28;20108;-72
2023/07/29 03:26:11;;;;;;;4.15;1.85;;;17.50;99.90;;;;;;5046874;28;20025;-72
2023/07/29 03:28:39;;;;;;;3.65;1.90;;;17.40;99.90;;;;;;5047678;28;20452;-72
2023/07/29 03:31:05;;;;;;;4.95;2.17;;;17.40;99.90;;;;;;5048153;28;20037;-72
2023/07/29 03:33:31;;;;;;;3.75;1.80;;;17.40;99.90;;;;;;5050074;28;20028;-72
2023/07/29 03:35:56;;;;;;;5.40;1.95;;;17.30;99.90;;;;;;5045381;28;20033;-72
2023/07/29 03:38:22;;;;;;;4.28;1.77;;;17.30;99.90;;;;;;5048781;28;20677;-73
2023/07/29 03:40:48;;;;;;;5.20;2.30;;;17.30;99.90;;;;;;5048208;28;20021;-72
2023/07/29 03:43:13;;;;;;;4.22;1.95;;;17.20;99.90;;;;;;5049875;28;20056;-72
2023/07/29 03:45:40;;;;;;;3.20;1.88;;;17.20;99.90;;;;;;5052158;28;20057;-72
2023/07/29 03:48:06;;;;;;;5.53;1.63;;;17.20;99.90;;;;;;5052582;28;20574;-72
2023/07/29 03:50:35;;;;;;;6.82;2.20;;;17.10;99.90;;;;;;5051769;28;20056;-72
2023/07/29 03:53:01;;;;;;;2.88;1.80;;;17.10;99.90;;;;;;5052851;28;20025;-73
2023/07/29 03:55:26;;;;;;;3.38;1.95;;;17.10;99.90;;;;;;5051860;28;20075;-72
2023/07/29 03:57:52;;;;;;;3.97;1.73;;;17.00;99.90;;;;;;5049577;28;20480;-72
2023/07/29 04:00:18;;;;;;;3.63;1.80;;;17.00;99.90;;;;;;5049272;28;20029;-72
2023/07/29 04:02:45;;;;;;;5.32;1.90;;;17.00;99.90;;;;;;5050290;28;20036;-73
2023/07/29 04:05:11;;;;;;;3.88;1.92;;;17.00;99.90;;;;;;5050709;28;20051;-72
2023/07/29 04:07:36;;;;;;;3.28;1.70;;;17.00;99.90;;;;;;5051983;28;20063;-72
2023/07/29 04:10:03;;;;;;;4.50;1.50;;;16.90;99.90;;;;;;5051139;28;20024;-72
2023/07/29 04:12:29;;;;;;;4.30;1.55;;;16.90;99.90;;;;;;5053219;28;20021;-72
2023/07/29 04:14:54;;;;;;;4.10;1.40;;;16.90;99.90;;;;;;5051710;28;20122;-73
2023/07/29 04:17:20;;;;;;;3.05;1.88;;;16.80;99.90;;;;;;5051406;28;20065;-72
2023/07/29 04:19:45;;;;;;;4.05;1.63;;;16.80;99.90;;;;;;5051076;28;20435;-73
2023/07/29 04:22:11;;;;;;;4.60;2.25;;;16.80;99.90;;;;;;5052443;28;20033;-72
2023/07/29 04:24:37;;;;;;;3.42;1.92;;;16.80;99.90;;;;;;5049103;28;20393;-72
2023/07/29 04:27:03;;;;;;;5.15;1.67;;;16.80;99.90;;;;;;5051972;28;20361;-72
2023/07/29 04:29:29;;;;;;;4.15;2.13;;;16.70;99.90;;;;;;5050645;28;20043;-73
2023/07/29 04:31:55;;;;;;;3.08;1.63;;;16.70;99.90;;;;;;5048415;28;20010;-72
2023/07/29 04:34:20;;;;;;;4.38;2.25;;;16.70;99.90;;;;;;5050918;28;20029;-73
2023/07/29 04:36:47;;;;;;;2.95;1.70;;;16.70;99.90;;;;;;5051550;28;20079;-72
2023/07/29 04:39:13;;;;;;;2.85;1.77;;;16.70;99.90;;;;;;5045440;28;20040;-72
2023/07/29 04:41:39;;;;;;;5.55;2.60;;;16.70;99.90;;;;;;5040498;28;20025;-72
2023/07/29 04:44:04;;;;;;;4.75;2.25;;;16.70;99.90;;;;;;5048751;28;20025;-73
2023/07/29 04:46:30;;;;;;;5.43;2.47;;;16.70;99.90;;;;;;5051150;28;20028;-72
2023/07/29 04:48:55;;;;;;;4.45;2.25;;;16.70;99.90;;;;;;5046028;28;20017;-73
2023/07/29 04:51:21;;;;;;;6.13;2.70;;;16.70;99.90;;;;;;5045235;28;20032;-72
2023/07/29 04:53:47;;;;;;;7.93;3.80;;;16.70;99.90;;;;;;5050166;28;20029;-72
2023/07/29 04:56:13;;;;;;;5.97;3.63;;;16.80;99.90;;;;;;5051181;28;20029;-72
2023/07/29 04:58:38;;;;;;;6.00;4.03;;;16.80;99.90;;;;;;5047113;28;20040;-72
2023/07/29 05:01:05;;;;;;;6.05;3.78;;;16.90;99.90;;;;;;5043352;28;20095;-71
2023/07/29 05:03:30;;;;;;;5.85;3.75;;;16.80;99.90;;;;;;5048402;28;20067;-73
2023/07/29 05:05:57;;;;;;;6.57;3.85;;;16.80;99.90;;;;;;5050371;28;20110;-72
2023/07/29 05:08:22;;;;;;;7.43;3.88;;;16.90;99.90;;;;;;5051353;28;20021;-73
2023/07/29 05:10:52;;;;;;;6.18;4.60;;;16.90;99.90;;;;;;5048456;28;20021;-73
2023/07/29 05:13:18;;;;;;;5.97;4.05;;;17.00;99.90;;;;;;5049374;28;20056;-72
2023/07/29 05:15:44;;;;;;;7.60;3.83;;;17.00;99.90;;;;;;5042030;28;20071;-72
2023/07/29 05:18:11;;;;;;;8.45;4.30;;;17.00;99.90;;;;;;5048447;28;20439;-72
2023/07/29 05:20:37;;;;;;;7.95;4.45;;;17.10;99.90;;;;;;5051219;28;20095;-72
2023/07/29 05:23:02;;;;;;;6.70;4.28;;;17.10;99.90;;;;;;5040335;28;20179;-73
2023/07/29 05:25:28;;;;;;;6.75;4.13;;;17.10;99.90;;;;;;5043691;28;20041;-72
2023/07/29 05:27:54;;;;;;;7.88;4.97;;;17.10;99.90;;;;;;5050676;28;20439;-72
2023/07/29 05:30:20;;;;;;;6.68;4.30;;;17.20;99.90;;;;;;5048909;28;20025;-72
2023/07/29 05:32:45;;;;;;;6.47;4.43;;;17.20;99.90;;;;;;5047232;28;20048;-72
2023/07/29 05:35:11;;;;;;;8.65;4.88;;;17.20;99.90;;;;;;5051665;28;20498;-73
2023/07/29 05:37:39;;;;;;;7.70;4.53;;;17.20;99.90;;;;;;5050725;28;20041;-72
2023/07/29 05:40:05;;;;;;;6.18;4.38;;;17.30;99.90;;;;;;5050034;28;20115;-72
2023/07/29 05:42:31;;;;;;;7.43;4.88;;;17.30;99.90;;;;;;5049742;28;20032;-72
2023/07/29 05:44:56;;;;;;;7.20;3.88;;;17.30;99.90;;;;;;5050898;28;20025;-73
2023/07/29 05:47:22;;;;;;;8.82;4.65;;;17.40;99.90;;;;;;5050716;28;20040;-73
2023/07/29 05:49:47;;;;;;;8.68;3.90;;;17.40;99.90;;;;;;5050143;28;20028;-72
2023/07/29 05:52:13;;;;;;;7.78;4.30;;;17.50;99.90;;;;;;5050543;28;20456;-72
2023/07/29 05:54:38;;;;;;;9.75;4.60;;;17.50;99.90;;;;;;5043826;28;20023;-72
2023/07/29 05:57:04;;;;;;;7.85;4.07;;;17.60;99.90;;;;;;5044379;28;20506;-72
2023/07/29 05:59:30;;;;;;;10.45;4.68;;;17.70;99.90;;;;;;5046549;28;20476;-72
2023/07/29 06:01:56;;;;;;;6.90;4.53;;;17.70;99.90;;;;;;5041337;28;20028;-72
2023/07/29 06:04:22;;;;;;;7.60;4.30;;;17.70;99.90;;;;;;5046620;28;20495;-72
2023/07/29 06:06:47;;;;;;;7.28;3.88;;;17.80;99.90;;;;;;5047445;28;20021;-72
2023/07/29 06:09:13;;;;;;;6.65;3.67;;;17.90;99.90;;;;;;5047740;28;20377;-73
2023/07/29 06:11:38;;;;;;;5.57;4.03;;;18.10;99.90;;;;;;5038200;28;20029;-72
2023/07/29 06:14:04;;;;;;;6.30;3.55;;;18.20;99.90;;;;;;5038223;28;20048;-72
2023/07/29 06:16:30;;;;;;;7.80;3.60;;;18.40;99.90;;;;;;5042460;28;20037;-72
2023/07/29 06:18:55;;;;;;;5.25;3.20;;;18.60;99.90;;;;;;5040185;28;20029;-71
2023/07/29 06:21:21;;;;;;;4.78;3.35;;;18.80;99.90;;;;;;5046259;28;20094;-72
2023/07/29 06:23:47;;;;;;;4.88;3.33;;;18.90;99.90;;;;;;5039342;28;20033;-72
2023/07/29 06:26:13;;;;;;;6.78;3.80;;;19.10;99.90;;;;;;5043058;28;20051;-73
2023/07/29 06:28:38;;;;;;;5.05;3.30;;;19.30;99.90;;;;;;5041242;28;20425;-73
2023/07/29 06:31:04;;;;;;;5.35;3.35;;;19.30;99.90;;;;;;5042241;28;20026;-72
2023/07/29 06:33:30;;;;;;;4.97;3.28;;;19.30;99.90;;;;;;5044398;28;20103;-73
2023/07/29 06:35:55;;;;;;;4.47;3.33;;;19.30;99.90;;;;;;5035111;28;20143;-72
2023/07/29 06:38:21;;;;;;;4.78;3.22;;;19.30;99.90;;;;;;5066093;28;20123;-72
2023/07/29 06:40:48;;;;;;;4.78;3.22;;;19.40;99.90;;;;;;5047861;28;20104;-73
2023/07/29 06:43:13;;;;;;;6.03;4.35;;;19.40;99.90;;;;;;5049064;28;20033;-73
2023/07/29 06:45:39;;;;;;;6.35;3.72;;;19.30;99.90;;;;;;5047235;28;20032;-72
2023/07/29 06:48:05;;;;;;;4.28;3.13;;;19.20;99.90;;;;;;5041367;28;20039;-72
2023/07/29 06:50:30;;;;;;;3.97;3.17;;;19.10;99.90;;;;;;5040276;28;20347;-72
2023/07/29 06:52:56;;;;;;;4.72;3.47;;;19.10;99.90;;;;;;5048864;28;20046;-73
2023/07/29 06:55:21;;;;;;;5.85;4.57;;;19.10;99.90;;;;;;5047450;28;20025;-72
2023/07/29 06:57:47;;;;;;;4.97;3.75;;;19.10;99.90;;;;;;5049389;28;20119;-73
2023/07/29 07:00:13;;;;;;;6.00;4.30;;;19.20;99.90;;;;;;5045985;28;20017;-73
2023/07/29 07:02:38;;;;;;;6.55;3.97;;;19.20;99.90;;;;;;5047985;28;20081;-73
2023/07/29 07:05:04;;;;;;;9.40;4.95;;;19.20;99.90;;;;;;5047710;28;20025;-72
2023/07/29 07:07:30;;;;;;;6.40;4.97;;;19.30;99.90;;;;;;5050081;28;20025;-73
2023/07/29 07:09:56;;;;;;;6.18;4.75;;;19.40;99.90;;;;;;5049772;28;20403;-73
2023/07/29 07:12:22;;;;;;;6.57;5.00;;;19.50;99.90;;;;;;5048719;28;20078;-73
2023/07/29 07:14:47;;;;;;;6.68;4.45;;;19.60;99.90;;;;;;5048627;28;20087;-73
2023/07/29 07:17:13;;;;;;;7.10;5.25;;;19.80;99.90;;;;;;5052530;28;20090;-73
2023/07/29 07:19:39;;;;;;;6.38;4.50;;;19.80;99.90;;;;;;5054158;28;20102;-73
2023/07/29 07:22:04;;;;;;;8.23;4.88;;;19.90;99.90;;;;;;5051916;28;20037;-72
2023/07/29 07:24:30;;;;;;;6.05;4.53;;;19.90;99.90;;;;;;5054142;28;20529;-73
2023/07/29 07:26:55;;;;;;;4.90;4.35;;;20.00;99.90;;;;;;5051074;28;20028;-73
2023/07/29 07:29:21;;;;;;;6.30;4.35;;;20.10;99.90;;;;;;5049288;28;20194;-73
2023/07/29 07:31:53;;;;;;;5.55;3.60;;;20.20;99.90;;;;;;5049107;28;20103;-73
2023/07/29 07:34:22;;;;;;;4.68;3.80;;;20.30;99.90;;;;;;5050830;28;20033;-72
2023/07/29 07:36:48;;;;;;;14.77;6.00;;;20.30;99.90;;;;;;5047415;28;20032;-73
2023/07/29 07:39:14;;;;;;;5.95;3.75;;;20.30;99.90;;;;;;5053032;28;20029;-72
2023/07/29 07:41:41;;;;;;;6.20;3.30;;;20.30;99.90;;;;;;5054231;28;20029;-73
2023/07/29 07:44:06;;;;;;;5.45;3.60;;;20.30;99.90;;;;;;5051387;28;20032;-73
2023/07/29 07:46:32;;;;;;;4.07;2.67;;;20.40;99.90;;;;;;5050362;28;20025;-73
2023/07/29 07:48:58;;;;;;;3.28;2.45;;;20.50;99.90;;;;;;5050188;28;20024;-73
2023/07/29 07:51:23;;;;;;;4.68;2.20;;;20.40;99.90;;;;;;5048133;28;20047;-73
2023/07/29 07:53:49;;;;;;;4.30;2.33;;;20.40;99.90;;;;;;5050086;28;20106;-73
2023/07/29 07:56:15;;;;;;;4.00;1.75;;;20.40;99.90;;;;;;5045575;28;20013;-73
2023/07/29 07:58:40;;;;;;;4.15;1.60;;;20.30;99.90;;;;;;5044690;28;20048;-75
2023/07/29 08:01:07;;;;;;;4.10;1.60;;;20.30;99.90;;;;;;5052348;28;20102;-73
2023/07/29 08:03:33;;;;;;;3.17;2.17;;;20.30;99.90;;;;;;5050644;28;20031;-73
2023/07/29 08:05:59;;;;;;;4.07;1.80;;;20.30;99.90;;;;;;5050491;28;20049;-73
2023/07/29 08:08:25;;;;;;;3.63;1.90;;;20.40;99.90;;;;;;5048897;28;20112;-73
2023/07/29 08:10:53;;;;;;;4.57;2.03;;;20.50;99.90;;;;;;5046429;28;20028;-73
2023/07/29 08:13:18;;;;;;;3.35;2.05;;;20.60;99.90;;;;;;5046530;28;20040;-73
2023/07/29 08:15:49;;;;;;;4.30;1.90;;;20.70;99.90;;;;;;5044274;28;20560;-72
2023/07/29 08:18:15;;;;;;;3.97;1.90;;;20.70;99.90;;;;;;5046994;28;20033;-73
2023/07/29 08:20:50;;;;;;;2.72;1.27;;;20.80;99.90;;;;;;5051373;28;20104;-73
2023/07/29 08:23:16;;;;;;;2.85;1.35;;;20.90;99.90;;;;;;5048254;28;20033;-73
2023/07/29 08:25:42;;;;;;;3.45;1.30;;;21.00;99.90;;;;;;5043301;28;20034;-72
2023/07/29 08:28:07;;;;;;;5.38;1.23;;;21.20;99.90;;;;;;5050782;28;20389;-71
2023/07/29 08:30:33;;;;;;;3.78;1.35;;;21.30;99.90;;;;;;5047732;28;20130;-71
2023/07/29 08:32:58;;;;;;;2.97;1.15;;;21.40;99.90;;;;;;5050061;28;20017;-73
2023/07/29 08:35:24;;;;;;;3.38;1.00;;;21.30;99.90;;;;;;5045522;28;20096;-73
2023/07/29 08:37:50;;;;;;;3.30;0.95;;;21.30;99.90;;;;;;5047028;28;20572;-73
2023/07/29 08:40:15;;;;;;;3.35;1.20;;;21.30;99.90;;;;;;5050183;28;20024;-72
2023/07/29 08:42:42;;;;;;;1.90;0.75;;;21.40;99.90;;;;;;5044981;28;20068;-73
2023/07/29 08:45:08;;;;;;;2.03;0.93;;;21.40;99.90;;;;;;5045499;28;20112;-73
2023/07/29 08:47:34;;;;;;;2.20;0.80;;;21.40;99.90;;;;;;5042199;28;20032;-72
2023/07/29 08:50:02;;;;;;;4.53;0.70;;;21.50;99.90;;;;;;5047807;28;20013;-73
2023/07/29 08:52:31;;;;;;;2.95;1.00;;;21.60;99.90;;;;;;5047304;28;20017;-73
2023/07/29 08:54:58;;;;;;;2.80;1.30;;;21.60;99.90;;;;;;5047657;28;20510;-73
2023/07/29 08:57:24;;;;;;;2.70;0.80;;;21.60;99.90;;;;;;5049198;28;20064;-73
2023/07/29 08:59:50;;;;;;;2.22;0.93;;;21.50;99.90;;;;;;5045421;28;20147;-73
2023/07/29 09:02:15;;;;;;;4.40;1.55;;;21.50;99.90;;;;;;5041821;28;20103;-73
2023/07/29 09:04:44;;;;;;;4.88;1.50;;;21.40;99.90;;;;;;5042960;28;20033;-73
2023/07/29 09:07:10;;;;;;;4.75;1.33;;;21.40;99.90;;;;;;5041593;28;20117;-73
2023/07/29 09:09:36;;;;;;;1.73;0.88;;;21.30;99.90;;;;;;5043083;28;20794;-73
2023/07/29 09:12:02;;;;;;;2.03;0.80;;;21.40;99.90;;;;;;5044511;28;20028;-73
2023/07/29 09:14:28;;;;;;;3.00;1.20;;;21.50;99.90;;;;;;5050023;28;20400;-73
2023/07/29 09:16:54;;;;;;;1.77;0.80;;;21.70;99.90;;;;;;5043889;28;20093;-71
2023/07/29 09:19:19;;;;;;;3.22;1.10;;;22.00;99.90;;;;;;5044147;28;20049;-74
2023/07/29 09:21:46;;;;;;;3.45;0.80;;;22.20;99.90;;;;;;5045875;28;20697;-71
2023/07/29 09:24:18;;;;;;;3.33;0.93;;;22.20;99.90;;;;;;5048221;28;20035;-73
2023/07/29 09:26:49;;;;;;;1.75;0.60;;;22.30;99.90;;;;;;5047509;28;20120;-73
2023/07/29 09:29:15;;;;;;;3.50;0.80;;;22.40;99.90;;;;;;5047550;28;20115;-73
2023/07/29 09:31:40;;;;;;;1.98;0.60;;;22.50;99.90;;;;;;5045750;28;20386;-73
2023/07/29 09:34:06;;;;;;;1.88;0.80;;;22.50;99.90;;;;;;5048904;28;20083;-73
2023/07/29 09:36:33;;;;;;;2.83;0.50;;;22.50;99.90;;;;;;5045629;28;20038;-73
2023/07/29 09:39:00;;;;;;;1.40;0.85;;;22.50;99.90;;;;;;5044960;28;20485;-71
2023/07/29 09:41:32;;;;;;;1.75;0.80;;;22.60;99.90;;;;;;5048152;28;20136;-72
2023/07/29 09:43:59;;;;;;;2.40;1.08;;;22.70;99.90;;;;;;5048149;28;20120;-72
2023/07/29 09:46:31;;;;;;;2.70;1.35;;;22.80;99.90;;;;;;5047576;28;20029;-72
2023/07/29 09:48:57;;;;;;;2.38;1.42;;;22.70;99.90;;;;;;5042099;28;20431;-73
2023/07/29 09:51:23;;;;;;;2.22;1.55;;;22.60;99.90;;;;;;5040682;28;20273;-73
2023/07/29 09:53:51;;;;;;;2.47;1.23;;;22.50;99.90;;;;;;5043054;28;20021;-73
2023/07/29 09:56:16;;;;;;;2.33;1.48;;;22.50;99.90;;;;;;5047287;28;20032;-72
2023/07/29 09:58:48;;;;;;;2.33;1.60;;;22.50;99.90;;;;;;5048417;28;20063;-71
2023/07/29 10:01:14;;;;;;;3.30;1.40;;;22.60;99.90;;;;;;5046276;28;20069;-71
2023/07/29 10:03:40;;;;;;;1.80;0.98;;;22.60;99.90;;;;;;5050311;28;20491;-71
2023/07/29 10:06:07;;;;;;;3.45;0.90;;;22.60;99.90;;;;;;5046931;28;20028;-71
2023/07/29 10:08:38;;;;;;;1.52;0.75;;;22.70;99.90;;;;;;5046566;28;20029;-71
2023/07/29 10:11:06;;;;;;;2.00;0.90;;;22.80;99.90;;;;;;5046802;28;20043;-71
2023/07/29 10:13:33;;;;;;;1.75;0.70;;;23.00;99.90;;;;;;5045179;28;20520;-71
2023/07/29 10:15:59;;;;;;;1.60;0.70;;;23.00;99.90;;;;;;5046918;28;20473;-71
2023/07/29 10:18:25;;;;;;;2.58;0.80;;;23.00;99.90;;;;;;5048001;28;20041;-71
2023/07/29 10:20:52;;;;;;;4.10;0.73;;;22.80;99.90;;;;;;5047844;28;20017;-71
2023/07/29 10:23:18;;;;;;;1.00;0.50;;;22.90;99.90;;;;;;5045640;28;20017;-71
2023/07/29 10:25:49;;;;;;;1.73;0.60;;;23.20;99.90;;;;;;5049278;28;20025;-71
2023/07/29 10:28:17;;;;;;;1.30;0.47;;;23.40;99.90;;;;;;5048539;28;20029;-71
2023/07/29 10:30:43;;;;;;;1.50;0.50;;;23.60;99.90;;;;;;5043579;28;21805;-71
2023/07/29 10:33:10;;;;;;;2.55;0.60;;;23.70;99.90;;;;;;5045337;28;20036;-71
2023/07/29 10:35:37;;;;;;;2.13;0.70;;;23.80;99.90;;;;;;5048234;28;20025;-71
2023/07/29 10:38:03;;;;;;;2.15;0.40;;;23.90;99.90;;;;;;5045892;28;20068;-71
2023/07/29 10:40:55;;;;;;;4.25;0.47;;;24.00;99.90;;;;;;5044976;28;20040;-71
2023/07/29 10:43:26;;;;;;;2.70;0.55;;;24.10;99.90;;;;;;5048381;28;20033;-71
2023/07/29 10:45:52;;;;;;;2.80;0.40;;;24.10;99.90;;;;;;5046941;28;20057;-71
2023/07/29 10:48:41;;;;;;;1.75;0.50;;;24.00;99.90;;;;;;5047324;28;20564;-71
2023/07/29 10:51:33;;;;;;;0.70;0.38;;;23.80;99.90;;;;;;5045816;28;20043;-71
2023/07/29 10:54:01;;;;;;;1.00;0.32;;;23.90;99.90;;;;;;5042866;28;20024;-72
2023/07/29 10:56:35;;;;;;;0.93;0.40;;;24.10;99.90;;;;;;5048018;28;20025;-72
2023/07/29 10:59:16;;;;;;;1.17;0.50;;;24.30;99.90;;;;;;5040744;28;20036;-72
2023/07/29 11:01:49;;;;;;;1.00;0.40;;;24.60;99.90;;;;;;5048702;28;20036;-72
2023/07/29 11:04:27;;;;;;;1.50;0.50;;;25.00;99.90;;;;;;5044206;28;20083;-73
2023/07/29 11:07:28;;;;;;;2.83;0.60;;;25.10;99.90;;;;;;5043453;28;20025;-72
2023/07/29 11:09:59;;;;;;;1.30;0.40;;;25.00;99.90;;;;;;5030041;28;20448;-73
2023/07/29 11:12:42;;;;;;;1.10;0.40;;;24.80;99.90;;;;;;5050263;28;20113;-72
2023/07/29 11:15:14;;;;;;;0.80;0.30;;;24.90;99.90;;;;;;5049728;28;20049;-72
2023/07/29 11:17:47;;;;;;;0.95;0.40;;;25.00;99.90;;;;;;5050531;28;20061;-73
2023/07/29 11:20:13;;;;;;;1.80;0.40;;;24.90;99.90;;;;;;5048209;28;20382;-72
2023/07/29 11:22:40;;;;;;;1.98;0.60;;;24.80;99.90;;;;;;5049533;28;20041;-75
2023/07/29 11:25:08;;;;;;;1.10;0.40;;;24.70;99.90;;;;;;5031831;28;20041;-72
2023/07/29 11:27:33;;;;;;;0.75;0.40;;;24.60;99.90;;;;;;5048640;28;20021;-73
2023/07/29 11:30:02;;;;;;;0.75;0.30;;;24.50;99.90;;;;;;5057679;28;20017;-74
2023/07/29 11:32:28;;;;;;;2.58;0.70;;;24.20;99.90;;;;;;5044214;28;20119;-72
2023/07/29 11:34:54;;;;;;;1.95;0.40;;;24.00;99.90;;;;;;5047650;28;20528;-72
2023/07/29 11:37:21;;;;;;;1.02;0.40;;;23.80;99.90;;;;;;5047502;28;20041;-72
2023/07/29 11:39:47;;;;;;;1.33;0.50;;;23.60;99.90;;;;;;5047641;28;20040;-74
2023/07/29 11:42:16;;;;;;;3.13;0.60;;;23.40;99.90;;;;;;5049745;28;20030;-72
2023/07/29 11:44:42;;;;;;;5.85;0.73;;;23.00;99.90;;;;;;5049129;28;20044;-74
2023/07/29 11:47:09;;;;;;;5.88;0.77;;;22.00;99.90;;;;;;5049558;28;20070;-73
2023/07/29 11:49:35;;;;;;;8.18;0.90;;;20.40;99.90;;;;;;5049873;28;20037;-75
2023/07/29 11:52:02;;;;;;;4.53;0.60;;;19.30;99.90;;;;;;5041546;28;20485;-74
2023/07/29 11:54:28;;;;;;;6.93;0.60;;;18.60;99.90;;;;;;5041235;28;20037;-74
2023/07/29 11:56:55;;;;;;;3.20;0.30;;;18.20;99.90;;;;;;5045433;28;20025;-74
2023/07/29 11:59:20;;;;;;;3.47;0.40;;;17.70;99.90;;;;;;5048862;28;20043;-74
2023/07/29 12:01:46;;;;;;;5.57;0.30;;;17.30;99.90;;;;;;5048782;28;20100;-74
2023/07/29 12:04:12;;;;;;;2.33;0.30;;;16.90;99.90;;;;;;5050879;28;20044;-75
2023/07/29 12:06:38;;;;;;;3.15;0.40;;;16.80;99.90;;;;;;5043860;28;20021;-74
2023/07/29 12:09:04;;;;;;;2.85;0.30;;;16.70;99.90;;;;;;5051969;28;20033;-74
2023/07/29 12:11:30;;;;;;;3.00;0.30;;;16.70;99.90;;;;;;5052801;28;20082;-74
2023/07/29 12:13:56;;;;;;;3.33;0.22;;;16.70;99.90;;;;;;5048914;28;20480;-74
2023/07/29 12:16:21;;;;;;;0.85;0.30;;;16.60;99.90;;;;;;5052328;28;20057;-74
2023/07/29 12:18:49;;;;;;;1.27;0.30;;;16.70;99.90;;;;;;5050674;28;20448;-74
2023/07/29 12:21:15;;;;;;;1.00;0.20;;;16.70;99.90;;;;;;5050298;28;20465;-74
2023/07/29 12:23:40;;;;;;;1.80;0.35;;;16.70;99.90;;;;;;5052095;28;20108;-74
2023/07/29 12:26:06;;;;;;;1.85;0.30;;;16.80;99.90;;;;;;5051635;28;20025;-74
2023/07/29 12:28:32;;;;;;;2.42;0.30;;;16.90;99.90;;;;;;5051492;28;20112;-74
2023/07/29 12:30:57;;;;;;;2.20;0.30;;;16.90;99.90;;;;;;5049832;28;20021;-74
2023/07/29 12:33:32;;;;;;;3.10;0.50;;;17.00;99.90;;;;;;5047960;28;20029;-74
2023/07/29 12:35:58;;;;;;;2.17;0.47;;;17.30;99.90;;;;;;5052223;28;20111;-74
2023/07/29 12:38:28;;;;;;;3.05;0.50;;;17.50;99.90;;;;;;5052023;28;20068;-74
2023/07/29 12:40:54;;;;;;;2.90;0.98;;;17.90;99.90;;;;;;5050911;28;20092;-74
2023/07/29 12:43:19;;;;;;;3.80;1.13;;;18.10;99.90;;;;;;5050971;28;20227;-74